createdAt,value
2024-04-24T00:07:38.479Z,21.00
2024-04-24T00:17:41.157Z,24.10
2024-04-24T00:27:43.879Z,26.00
2024-04-24T00:37:46.562Z,27.80
2024-04-24T00:47:49.168Z,29.80
2024-04-24T00:57:51.880Z,30.00
2024-04-24T01:07:54.491Z,27.80
2024-04-24T01:17:57.325Z,23.50
2024-04-24T01:28:00.025Z,27.40
2024-04-24T01:38:02.653Z,29.30
2024-04-24T01:48:05.487Z,33.00
2024-04-24T01:58:08.068Z,34.50
2024-04-24T02:08:10.628Z,36.80
2024-04-24T02:18:13.342Z,39.10
2024-04-24T02:28:16.434Z,40.30
2024-04-24T02:38:19.091Z,43.60
2024-04-24T02:48:21.786Z,47.00
2024-04-24T02:58:24.366Z,48.10
2024-04-24T03:08:26.996Z,49.80
2024-04-24T03:18:29.733Z,50.30
2024-04-24T03:28:32.329Z,50.20
2024-04-24T03:38:34.895Z,49.20
2024-04-24T03:48:40.246Z,49.20
2024-04-24T03:58:46.658Z,50.60
2024-04-24T04:08:49.230Z,51.00
2024-04-24T04:18:52.301Z,50.70
2024-04-24T04:28:54.991Z,51.70
2024-04-24T04:38:57.600Z,51.50
2024-04-24T04:49:00.177Z,51.00
2024-04-24T04:59:02.796Z,50.80
2024-04-24T05:09:05.483Z,51.10
2024-04-24T05:19:08.163Z,51.60
2024-04-24T05:29:10.895Z,51.60
2024-04-24T05:39:13.477Z,52.00
2024-04-24T05:49:16.032Z,53.70
2024-04-24T05:59:18.656Z,52.30
2024-04-24T06:09:21.288Z,54.40
2024-04-24T06:19:24.078Z,53.50
2024-04-24T06:29:26.701Z,55.00
2024-04-24T06:39:29.333Z,56.00
2024-04-24T06:49:31.937Z,56.20
2024-04-24T06:59:34.719Z,57.20
2024-04-24T07:09:37.324Z,56.60
2024-04-24T07:19:39.917Z,58.20
2024-04-24T07:29:42.549Z,57.90
2024-04-24T07:39:45.093Z,58.80
2024-04-24T07:49:47.647Z,61.50
2024-04-24T07:59:50.204Z,61.10
2024-04-24T08:09:52.796Z,62.40
2024-04-24T08:19:55.523Z,62.90
2024-04-24T08:29:58.146Z,62.70
2024-04-24T08:40:00.824Z,64.00
2024-04-24T08:50:03.486Z,65.00
2024-04-24T09:00:06.218Z,65.90
2024-04-24T09:10:09.290Z,66.70
2024-04-24T09:20:11.983Z,67.30
2024-04-24T09:30:14.671Z,67.90
2024-04-24T09:40:17.239Z,68.10
2024-04-24T09:50:20.091Z,68.20
2024-04-24T10:00:22.746Z,65.40
2024-04-24T10:10:25.391Z,68.10
2024-04-24T10:20:28.446Z,67.80
2024-04-24T10:30:31.241Z,68.40
2024-04-24T10:40:33.776Z,69.20
2024-04-24T10:50:36.445Z,69.90
2024-04-24T11:00:39.147Z,68.60
2024-04-24T11:10:41.821Z,69.60
2024-04-24T11:20:44.822Z,70.90
2024-04-24T11:30:47.419Z,71.80
2024-04-24T11:40:50.031Z,72.30
2024-04-24T11:50:52.752Z,72.40
2024-04-24T12:00:55.403Z,73.70
2024-04-24T12:10:58.006Z,72.00
2024-04-24T12:21:02.386Z,70.90
2024-04-24T12:31:05.465Z,69.90
2024-04-24T12:41:08.186Z,70.30
2024-04-24T12:51:11.000Z,71.40
2024-04-24T13:01:13.631Z,72.30
2024-04-24T13:11:16.282Z,73.10
2024-04-24T13:21:18.971Z,78.00
2024-04-24T13:31:21.573Z,83.20
2024-04-24T13:41:24.216Z,85.20
2024-04-24T13:51:26.819Z,88.40
2024-04-24T14:01:29.422Z,91.90
2024-04-24T14:11:31.979Z,92.50
2024-04-24T14:21:34.631Z,94.10
2024-04-24T14:31:38.173Z,97.10
2024-04-24T14:41:40.922Z,97.70
2024-04-24T14:51:43.488Z,99.40
2024-04-24T15:01:46.443Z,99.90
2024-04-24T15:11:49.345Z,99.90
2024-04-24T15:21:52.196Z,99.90
2024-04-24T15:31:54.795Z,99.90
2024-04-24T15:41:57.339Z,99.90
2024-04-24T15:52:00.132Z,99.90
2024-04-24T16:02:02.770Z,99.90
2024-04-24T16:12:05.377Z,99.90
2024-04-24T16:22:07.974Z,99.90
2024-04-24T16:32:10.596Z,99.90
2024-04-24T16:42:13.285Z,99.90
2024-04-24T16:52:15.910Z,99.90
2024-04-24T17:02:18.568Z,99.90
2024-04-24T17:12:21.192Z,99.90
2024-04-24T17:22:23.767Z,99.90
2024-04-24T17:32:26.577Z,99.90
2024-04-24T17:42:29.216Z,95.80
2024-04-24T17:52:31.894Z,95.30
2024-04-24T18:02:34.493Z,92.30
2024-04-24T18:12:37.091Z,90.00
2024-04-24T18:22:39.864Z,90.70
2024-04-24T18:32:42.620Z,90.90
2024-04-24T18:42:45.317Z,90.20
2024-04-24T18:52:47.857Z,84.60
2024-04-24T19:02:50.602Z,85.70
2024-04-24T19:12:53.296Z,84.20
2024-04-24T19:22:55.903Z,85.10
2024-04-24T19:32:58.548Z,81.80
2024-04-24T19:43:01.235Z,86.80
2024-04-24T19:53:03.874Z,92.10
2024-04-24T20:03:06.563Z,94.00
2024-04-24T20:13:11.969Z,96.00
2024-04-24T20:23:15.847Z,99.40
2024-04-24T20:33:18.681Z,99.60
2024-04-24T20:43:21.347Z,99.90
2024-04-24T20:53:23.927Z,99.90
2024-04-24T21:03:26.511Z,99.90
2024-04-24T21:13:29.102Z,99.90
2024-04-24T21:23:31.741Z,99.90
2024-04-24T21:33:34.566Z,99.90
2024-04-24T21:43:37.233Z,99.90
2024-04-24T21:53:39.858Z,99.90
2024-04-24T22:03:42.528Z,99.90
2024-04-24T22:13:45.095Z,99.90
2024-04-24T22:23:47.704Z,99.90
2024-04-24T22:33:50.297Z,99.90
2024-04-24T22:43:52.830Z,99.90
2024-04-24T22:53:55.386Z,99.90
2024-04-24T23:03:58.012Z,99.90
2024-04-24T23:14:00.607Z,99.90
2024-04-24T23:24:03.358Z,99.90
2024-04-24T23:34:05.883Z,99.90
2024-04-24T23:44:08.433Z,99.90
2024-04-24T23:54:11.020Z,99.90
